sensor_id;sensor_type;location;lat;lon;timestamp;P1;durP1;ratioP1;P2;durP2;ratioP2
5042;SDS011;2540;50.928;6.856;2023-08-08T00:00:41;4.03;;;1.57;;
5042;SDS011;2540;50.928;6.856;2023-08-08T00:03:07;1.60;;;1.47;;
5042;SDS011;2540;50.928;6.856;2023-08-08T00:05:33;10.23;;;1.63;;
5042;SDS011;2540;50.928;6.856;2023-08-08T00:07:59;2.17;;;1.23;;
5042;SDS011;2540;50.928;6.856;2023-08-08T00:10:24;4.43;;;1.60;;
5042;SDS011;2540;50.928;6.856;2023-08-08T00:12:49;5.83;;;1.93;;
5042;SDS011;2540;50.928;6.856;2023-08-08T00:15:15;1.87;;;1.47;;
5042;SDS011;2540;50.928;6.856;2023-08-08T00:17:40;1.83;;;1.63;;
5042;SDS011;2540;50.928;6.856;2023-08-08T00:20:06;2.63;;;1.40;;
5042;SDS011;2540;50.928;6.856;2023-08-08T00:22:32;1.87;;;1.77;;
5042;SDS011;2540;50.928;6.856;2023-08-08T00:24:57;3.70;;;2.00;;
5042;SDS011;2540;50.928;6.856;2023-08-08T00:27:23;3.73;;;1.90;;
5042;SDS011;2540;50.928;6.856;2023-08-08T00:29:48;5.03;;;1.70;;
5042;SDS011;2540;50.928;6.856;2023-08-08T00:32:15;1.83;;;1.73;;
5042;SDS011;2540;50.928;6.856;2023-08-08T00:34:40;2.60;;;1.67;;
5042;SDS011;2540;50.928;6.856;2023-08-08T00:37:06;8.73;;;1.37;;
5042;SDS011;2540;50.928;6.856;2023-08-08T00:39:31;3.17;;;1.70;;
5042;SDS011;2540;50.928;6.856;2023-08-08T00:41:56;2.00;;;1.63;;
5042;SDS011;2540;50.928;6.856;2023-08-08T00:44:22;2.33;;;1.80;;
5042;SDS011;2540;50.928;6.856;2023-08-08T00:46:47;2.30;;;1.90;;
5042;SDS011;2540;50.928;6.856;2023-08-08T00:49:12;3.80;;;1.87;;
5042;SDS011;2540;50.928;6.856;2023-08-08T00:51:38;1.10;;;1.10;;
5042;SDS011;2540;50.928;6.856;2023-08-08T00:54:03;1.90;;;1.53;;
5042;SDS011;2540;50.928;6.856;2023-08-08T00:56:29;2.43;;;1.50;;
5042;SDS011;2540;50.928;6.856;2023-08-08T00:58:54;5.07;;;1.40;;
5042;SDS011;2540;50.928;6.856;2023-08-08T01:01:20;2.10;;;1.73;;
5042;SDS011;2540;50.928;6.856;2023-08-08T01:03:45;4.03;;;1.40;;
5042;SDS011;2540;50.928;6.856;2023-08-08T01:06:13;4.00;;;1.40;;
5042;SDS011;2540;50.928;6.856;2023-08-08T01:08:48;1.40;;;1.30;;
5042;SDS011;2540;50.928;6.856;2023-08-08T01:11:19;5.63;;;1.60;;
5042;SDS011;2540;50.928;6.856;2023-08-08T01:13:45;3.80;;;1.90;;
5042;SDS011;2540;50.928;6.856;2023-08-08T01:16:11;5.17;;;1.77;;
5042;SDS011;2540;50.928;6.856;2023-08-08T01:18:37;5.43;;;1.40;;
5042;SDS011;2540;50.928;6.856;2023-08-08T01:21:03;1.40;;;1.30;;
5042;SDS011;2540;50.928;6.856;2023-08-08T01:23:30;1.70;;;1.40;;
5042;SDS011;2540;50.928;6.856;2023-08-08T01:25:58;1.30;;;1.20;;
5042;SDS011;2540;50.928;6.856;2023-08-08T01:28:24;4.00;;;1.80;;
5042;SDS011;2540;50.928;6.856;2023-08-08T01:30:50;2.03;;;1.77;;
5042;SDS011;2540;50.928;6.856;2023-08-08T01:33:15;2.20;;;1.80;;
5042;SDS011;2540;50.928;6.856;2023-08-08T01:35:42;1.67;;;1.30;;
5042;SDS011;2540;50.928;6.856;2023-08-08T01:41:00;3.00;;;1.80;;
5042;SDS011;2540;50.928;6.856;2023-08-08T01:43:27;7.33;;;2.07;;
5042;SDS011;2540;50.928;6.856;2023-08-08T01:45:52;5.20;;;1.30;;
5042;SDS011;2540;50.928;6.856;2023-08-08T01:48:18;8.23;;;1.80;;
5042;SDS011;2540;50.928;6.856;2023-08-08T01:50:43;2.10;;;1.70;;
5042;SDS011;2540;50.928;6.856;2023-08-08T01:53:09;2.30;;;1.70;;
5042;SDS011;2540;50.928;6.856;2023-08-08T01:55:40;2.13;;;1.57;;
5042;SDS011;2540;50.928;6.856;2023-08-08T01:58:06;2.93;;;1.90;;
5042;SDS011;2540;50.928;6.856;2023-08-08T02:00:31;3.17;;;1.70;;
5042;SDS011;2540;50.928;6.856;2023-08-08T02:02:56;2.30;;;1.50;;
5042;SDS011;2540;50.928;6.856;2023-08-08T02:05:22;4.30;;;1.83;;
5042;SDS011;2540;50.928;6.856;2023-08-08T02:07:47;3.53;;;2.00;;
5042;SDS011;2540;50.928;6.856;2023-08-08T02:10:12;5.30;;;2.00;;
5042;SDS011;2540;50.928;6.856;2023-08-08T02:12:37;2.53;;;1.57;;
5042;SDS011;2540;50.928;6.856;2023-08-08T02:15:03;2.00;;;1.90;;
5042;SDS011;2540;50.928;6.856;2023-08-08T02:17:29;3.83;;;2.00;;
5042;SDS011;2540;50.928;6.856;2023-08-08T02:19:54;1.90;;;1.57;;
5042;SDS011;2540;50.928;6.856;2023-08-08T02:22:20;5.57;;;1.97;;
5042;SDS011;2540;50.928;6.856;2023-08-08T02:24:45;2.80;;;1.50;;
5042;SDS011;2540;50.928;6.856;2023-08-08T02:27:11;2.07;;;1.33;;
5042;SDS011;2540;50.928;6.856;2023-08-08T02:29:36;1.90;;;1.50;;
5042;SDS011;2540;50.928;6.856;2023-08-08T02:32:02;6.50;;;2.00;;
5042;SDS011;2540;50.928;6.856;2023-08-08T02:34:27;6.83;;;1.80;;
5042;SDS011;2540;50.928;6.856;2023-08-08T02:36:53;4.20;;;2.03;;
5042;SDS011;2540;50.928;6.856;2023-08-08T02:39:18;4.57;;;1.50;;
5042;SDS011;2540;50.928;6.856;2023-08-08T02:41:43;3.37;;;1.60;;
5042;SDS011;2540;50.928;6.856;2023-08-08T02:44:09;5.60;;;2.07;;
5042;SDS011;2540;50.928;6.856;2023-08-08T02:46:35;4.60;;;1.73;;
5042;SDS011;2540;50.928;6.856;2023-08-08T02:49:02;2.77;;;1.50;;
5042;SDS011;2540;50.928;6.856;2023-08-08T02:51:28;5.83;;;1.43;;
5042;SDS011;2540;50.928;6.856;2023-08-08T02:53:54;1.90;;;1.40;;
5042;SDS011;2540;50.928;6.856;2023-08-08T02:56:19;2.90;;;1.57;;
5042;SDS011;2540;50.928;6.856;2023-08-08T02:58:44;4.50;;;1.83;;
5042;SDS011;2540;50.928;6.856;2023-08-08T03:01:10;3.13;;;1.57;;
5042;SDS011;2540;50.928;6.856;2023-08-08T03:03:38;3.03;;;1.57;;
5042;SDS011;2540;50.928;6.856;2023-08-08T03:06:03;1.57;;;1.37;;
5042;SDS011;2540;50.928;6.856;2023-08-08T03:08:28;3.67;;;2.20;;
5042;SDS011;2540;50.928;6.856;2023-08-08T03:10:54;2.83;;;1.30;;
5042;SDS011;2540;50.928;6.856;2023-08-08T03:13:19;6.60;;;1.73;;
5042;SDS011;2540;50.928;6.856;2023-08-08T03:15:45;3.27;;;1.50;;
5042;SDS011;2540;50.928;6.856;2023-08-08T03:18:10;3.37;;;1.40;;
5042;SDS011;2540;50.928;6.856;2023-08-08T03:20:35;2.83;;;1.57;;
5042;SDS011;2540;50.928;6.856;2023-08-08T03:23:01;2.80;;;1.60;;
5042;SDS011;2540;50.928;6.856;2023-08-08T03:25:26;1.93;;;1.40;;
5042;SDS011;2540;50.928;6.856;2023-08-08T03:27:51;4.03;;;1.80;;
5042;SDS011;2540;50.928;6.856;2023-08-08T03:30:16;3.20;;;1.80;;
5042;SDS011;2540;50.928;6.856;2023-08-08T03:32:42;3.67;;;1.77;;
5042;SDS011;2540;50.928;6.856;2023-08-08T03:35:07;2.97;;;1.80;;
5042;SDS011;2540;50.928;6.856;2023-08-08T03:37:34;5.00;;;2.00;;
5042;SDS011;2540;50.928;6.856;2023-08-08T03:39:59;3.33;;;1.40;;
5042;SDS011;2540;50.928;6.856;2023-08-08T03:42:25;3.83;;;1.70;;
5042;SDS011;2540;50.928;6.856;2023-08-08T03:44:50;2.90;;;1.70;;
5042;SDS011;2540;50.928;6.856;2023-08-08T03:47:15;2.63;;;1.57;;
5042;SDS011;2540;50.928;6.856;2023-08-08T03:49:41;2.00;;;1.33;;
5042;SDS011;2540;50.928;6.856;2023-08-08T03:52:06;2.50;;;1.60;;
5042;SDS011;2540;50.928;6.856;2023-08-08T03:54:32;7.03;;;1.70;;
5042;SDS011;2540;50.928;6.856;2023-08-08T03:56:57;3.30;;;1.40;;
5042;SDS011;2540;50.928;6.856;2023-08-08T03:59:22;8.30;;;1.90;;
5042;SDS011;2540;50.928;6.856;2023-08-08T04:01:47;4.27;;;1.60;;
5042;SDS011;2540;50.928;6.856;2023-08-08T04:04:13;2.93;;;1.67;;
5042;SDS011;2540;50.928;6.856;2023-08-08T04:06:39;6.73;;;1.80;;
5042;SDS011;2540;50.928;6.856;2023-08-08T04:09:04;2.07;;;1.50;;
5042;SDS011;2540;50.928;6.856;2023-08-08T04:11:29;4.80;;;1.73;;
5042;SDS011;2540;50.928;6.856;2023-08-08T04:13:55;2.27;;;1.60;;
5042;SDS011;2540;50.928;6.856;2023-08-08T04:16:20;3.57;;;1.80;;
5042;SDS011;2540;50.928;6.856;2023-08-08T04:18:45;3.93;;;1.60;;
5042;SDS011;2540;50.928;6.856;2023-08-08T04:21:11;6.43;;;1.63;;
5042;SDS011;2540;50.928;6.856;2023-08-08T04:23:36;7.10;;;2.20;;
5042;SDS011;2540;50.928;6.856;2023-08-08T04:26:02;4.87;;;2.27;;
5042;SDS011;2540;50.928;6.856;2023-08-08T04:28:27;3.03;;;1.90;;
5042;SDS011;2540;50.928;6.856;2023-08-08T04:30:52;2.77;;;1.70;;
5042;SDS011;2540;50.928;6.856;2023-08-08T04:33:18;2.93;;;1.80;;
5042;SDS011;2540;50.928;6.856;2023-08-08T04:35:43;5.77;;;2.27;;
5042;SDS011;2540;50.928;6.856;2023-08-08T04:38:09;2.50;;;1.53;;
5042;SDS011;2540;50.928;6.856;2023-08-08T04:40:34;5.30;;;1.93;;
5042;SDS011;2540;50.928;6.856;2023-08-08T04:43:00;5.03;;;1.67;;
5042;SDS011;2540;50.928;6.856;2023-08-08T04:45:25;6.43;;;1.67;;
5042;SDS011;2540;50.928;6.856;2023-08-08T04:47:52;11.80;;;1.80;;
5042;SDS011;2540;50.928;6.856;2023-08-08T04:50:17;6.73;;;2.93;;
5042;SDS011;2540;50.928;6.856;2023-08-08T04:52:42;5.50;;;1.97;;
5042;SDS011;2540;50.928;6.856;2023-08-08T04:55:08;3.67;;;2.10;;
5042;SDS011;2540;50.928;6.856;2023-08-08T04:57:33;6.83;;;3.00;;
5042;SDS011;2540;50.928;6.856;2023-08-08T04:59:59;8.33;;;2.17;;
5042;SDS011;2540;50.928;6.856;2023-08-08T05:02:29;4.97;;;2.23;;
5042;SDS011;2540;50.928;6.856;2023-08-08T05:04:54;4.30;;;2.43;;
5042;SDS011;2540;50.928;6.856;2023-08-08T05:07:20;2.97;;;1.83;;
5042;SDS011;2540;50.928;6.856;2023-08-08T05:09:45;13.87;;;2.97;;
5042;SDS011;2540;50.928;6.856;2023-08-08T05:12:10;2.17;;;1.97;;
5042;SDS011;2540;50.928;6.856;2023-08-08T05:14:36;4.30;;;2.67;;
5042;SDS011;2540;50.928;6.856;2023-08-08T05:17:02;3.27;;;2.27;;
5042;SDS011;2540;50.928;6.856;2023-08-08T05:19:28;4.20;;;2.33;;
5042;SDS011;2540;50.928;6.856;2023-08-08T05:21:53;7.00;;;2.53;;
5042;SDS011;2540;50.928;6.856;2023-08-08T05:24:18;9.57;;;2.47;;
5042;SDS011;2540;50.928;6.856;2023-08-08T05:26:44;6.33;;;2.13;;
5042;SDS011;2540;50.928;6.856;2023-08-08T05:29:09;6.13;;;2.40;;
5042;SDS011;2540;50.928;6.856;2023-08-08T05:31:34;8.07;;;3.70;;
5042;SDS011;2540;50.928;6.856;2023-08-08T05:34:00;9.23;;;2.50;;
5042;SDS011;2540;50.928;6.856;2023-08-08T05:36:25;10.13;;;2.50;;
5042;SDS011;2540;50.928;6.856;2023-08-08T05:38:51;5.47;;;2.20;;
5042;SDS011;2540;50.928;6.856;2023-08-08T05:41:16;6.67;;;2.80;;
5042;SDS011;2540;50.928;6.856;2023-08-08T05:43:41;5.93;;;2.20;;
5042;SDS011;2540;50.928;6.856;2023-08-08T05:46:07;3.70;;;2.60;;
5042;SDS011;2540;50.928;6.856;2023-08-08T05:48:32;3.83;;;2.37;;
5042;SDS011;2540;50.928;6.856;2023-08-08T05:50:58;10.00;;;2.33;;
5042;SDS011;2540;50.928;6.856;2023-08-08T05:53:24;2.80;;;1.90;;
5042;SDS011;2540;50.928;6.856;2023-08-08T05:55:50;5.27;;;2.30;;
5042;SDS011;2540;50.928;6.856;2023-08-08T05:58:15;7.73;;;3.10;;
5042;SDS011;2540;50.928;6.856;2023-08-08T06:00:41;7.70;;;3.00;;
5042;SDS011;2540;50.928;6.856;2023-08-08T06:03:07;10.10;;;3.03;;
5042;SDS011;2540;50.928;6.856;2023-08-08T06:05:32;4.47;;;1.93;;
5042;SDS011;2540;50.928;6.856;2023-08-08T06:07:58;17.73;;;2.60;;
5042;SDS011;2540;50.928;6.856;2023-08-08T06:10:23;9.93;;;3.00;;
5042;SDS011;2540;50.928;6.856;2023-08-08T06:12:50;8.70;;;2.80;;
5042;SDS011;2540;50.928;6.856;2023-08-08T06:15:15;7.00;;;2.70;;
5042;SDS011;2540;50.928;6.856;2023-08-08T06:17:40;7.23;;;1.83;;
5042;SDS011;2540;50.928;6.856;2023-08-08T06:20:06;9.53;;;2.30;;
5042;SDS011;2540;50.928;6.856;2023-08-08T06:22:33;13.17;;;2.40;;
5042;SDS011;2540;50.928;6.856;2023-08-08T06:24:59;5.70;;;2.13;;
5042;SDS011;2540;50.928;6.856;2023-08-08T06:27:24;10.30;;;2.70;;
5042;SDS011;2540;50.928;6.856;2023-08-08T06:29:49;5.80;;;1.60;;
5042;SDS011;2540;50.928;6.856;2023-08-08T06:32:15;4.07;;;1.90;;
5042;SDS011;2540;50.928;6.856;2023-08-08T06:34:40;7.10;;;2.20;;
5042;SDS011;2540;50.928;6.856;2023-08-08T06:37:05;4.37;;;2.20;;
5042;SDS011;2540;50.928;6.856;2023-08-08T06:39:31;11.37;;;2.30;;
5042;SDS011;2540;50.928;6.856;2023-08-08T06:41:56;5.40;;;2.30;;
5042;SDS011;2540;50.928;6.856;2023-08-08T06:44:22;10.03;;;2.67;;
5042;SDS011;2540;50.928;6.856;2023-08-08T06:46:47;5.37;;;2.00;;
5042;SDS011;2540;50.928;6.856;2023-08-08T06:49:12;4.90;;;2.40;;
5042;SDS011;2540;50.928;6.856;2023-08-08T06:51:38;8.10;;;1.93;;
5042;SDS011;2540;50.928;6.856;2023-08-08T06:54:03;3.00;;;2.10;;
5042;SDS011;2540;50.928;6.856;2023-08-08T06:56:29;10.20;;;2.20;;
5042;SDS011;2540;50.928;6.856;2023-08-08T06:58:54;4.20;;;2.20;;
5042;SDS011;2540;50.928;6.856;2023-08-08T07:01:19;4.23;;;2.20;;
5042;SDS011;2540;50.928;6.856;2023-08-08T07:03:45;10.83;;;2.57;;
5042;SDS011;2540;50.928;6.856;2023-08-08T07:06:11;2.27;;;1.80;;
5042;SDS011;2540;50.928;6.856;2023-08-08T07:08:37;5.57;;;2.13;;
5042;SDS011;2540;50.928;6.856;2023-08-08T07:11:04;7.77;;;2.00;;
5042;SDS011;2540;50.928;6.856;2023-08-08T07:13:31;3.80;;;2.30;;
5042;SDS011;2540;50.928;6.856;2023-08-08T07:15:56;4.37;;;1.93;;
5042;SDS011;2540;50.928;6.856;2023-08-08T07:18:21;4.03;;;2.27;;
5042;SDS011;2540;50.928;6.856;2023-08-08T07:20:47;5.90;;;2.23;;
5042;SDS011;2540;50.928;6.856;2023-08-08T07:23:12;5.07;;;1.93;;
5042;SDS011;2540;50.928;6.856;2023-08-08T07:25:37;5.10;;;2.20;;
5042;SDS011;2540;50.928;6.856;2023-08-08T07:28:03;13.33;;;2.50;;
5042;SDS011;2540;50.928;6.856;2023-08-08T07:30:28;17.87;;;3.60;;
5042;SDS011;2540;50.928;6.856;2023-08-08T07:32:53;3.27;;;2.10;;
5042;SDS011;2540;50.928;6.856;2023-08-08T07:35:19;6.27;;;2.67;;
5042;SDS011;2540;50.928;6.856;2023-08-08T07:37:44;4.13;;;2.20;;
5042;SDS011;2540;50.928;6.856;2023-08-08T07:40:13;8.43;;;2.43;;
5042;SDS011;2540;50.928;6.856;2023-08-08T07:42:39;6.70;;;2.47;;
5042;SDS011;2540;50.928;6.856;2023-08-08T07:45:05;6.47;;;2.70;;
5042;SDS011;2540;50.928;6.856;2023-08-08T07:47:30;5.00;;;2.27;;
5042;SDS011;2540;50.928;6.856;2023-08-08T07:49:56;5.87;;;2.47;;
5042;SDS011;2540;50.928;6.856;2023-08-08T07:52:22;8.70;;;2.80;;
5042;SDS011;2540;50.928;6.856;2023-08-08T07:54:48;19.77;;;2.63;;
5042;SDS011;2540;50.928;6.856;2023-08-08T07:57:13;9.00;;;2.90;;
5042;SDS011;2540;50.928;6.856;2023-08-08T07:59:39;6.60;;;2.80;;
5042;SDS011;2540;50.928;6.856;2023-08-08T08:02:04;4.80;;;2.87;;
5042;SDS011;2540;50.928;6.856;2023-08-08T08:04:30;9.33;;;3.47;;
5042;SDS011;2540;50.928;6.856;2023-08-08T08:06:55;6.33;;;3.27;;
5042;SDS011;2540;50.928;6.856;2023-08-08T08:09:21;5.00;;;2.67;;
5042;SDS011;2540;50.928;6.856;2023-08-08T08:11:46;8.50;;;2.77;;
5042;SDS011;2540;50.928;6.856;2023-08-08T08:14:12;5.53;;;2.63;;
5042;SDS011;2540;50.928;6.856;2023-08-08T08:16:37;12.70;;;4.40;;
5042;SDS011;2540;50.928;6.856;2023-08-08T08:19:03;10.00;;;3.57;;
5042;SDS011;2540;50.928;6.856;2023-08-08T08:21:29;5.50;;;3.17;;
5042;SDS011;2540;50.928;6.856;2023-08-08T08:23:54;3.50;;;3.13;;
5042;SDS011;2540;50.928;6.856;2023-08-08T08:26:20;4.80;;;3.27;;
5042;SDS011;2540;50.928;6.856;2023-08-08T08:28:45;6.30;;;3.03;;
5042;SDS011;2540;50.928;6.856;2023-08-08T08:31:10;10.30;;;3.83;;
5042;SDS011;2540;50.928;6.856;2023-08-08T08:33:36;4.50;;;3.10;;
5042;SDS011;2540;50.928;6.856;2023-08-08T08:36:01;8.93;;;2.97;;
5042;SDS011;2540;50.928;6.856;2023-08-08T08:38:26;5.40;;;2.93;;
5042;SDS011;2540;50.928;6.856;2023-08-08T08:40:52;5.33;;;3.00;;
5042;SDS011;2540;50.928;6.856;2023-08-08T08:43:19;7.97;;;2.93;;
5042;SDS011;2540;50.928;6.856;2023-08-08T08:45:46;4.43;;;2.67;;
5042;SDS011;2540;50.928;6.856;2023-08-08T08:48:15;16.53;;;3.20;;
5042;SDS011;2540;50.928;6.856;2023-08-08T08:50:41;5.13;;;2.67;;
5042;SDS011;2540;50.928;6.856;2023-08-08T08:53:08;7.93;;;3.10;;
5042;SDS011;2540;50.928;6.856;2023-08-08T08:55:38;5.17;;;3.00;;
5042;SDS011;2540;50.928;6.856;2023-08-08T08:58:04;4.50;;;3.07;;
5042;SDS011;2540;50.928;6.856;2023-08-08T09:00:30;8.10;;;3.53;;
5042;SDS011;2540;50.928;6.856;2023-08-08T09:02:56;6.80;;;2.97;;
5042;SDS011;2540;50.928;6.856;2023-08-08T09:05:21;11.10;;;3.20;;
5042;SDS011;2540;50.928;6.856;2023-08-08T09:07:47;8.40;;;3.53;;
5042;SDS011;2540;50.928;6.856;2023-08-08T09:10:14;5.80;;;2.93;;
5042;SDS011;2540;50.928;6.856;2023-08-08T09:12:40;4.93;;;3.23;;
5042;SDS011;2540;50.928;6.856;2023-08-08T09:15:06;3.93;;;2.57;;
5042;SDS011;2540;50.928;6.856;2023-08-08T09:17:31;5.23;;;3.40;;
5042;SDS011;2540;50.928;6.856;2023-08-08T09:19:57;3.97;;;2.67;;
5042;SDS011;2540;50.928;6.856;2023-08-08T09:22:23;8.93;;;2.93;;
5042;SDS011;2540;50.928;6.856;2023-08-08T09:24:49;9.50;;;2.87;;
5042;SDS011;2540;50.928;6.856;2023-08-08T09:27:14;6.10;;;3.03;;
5042;SDS011;2540;50.928;6.856;2023-08-08T09:29:40;4.60;;;2.60;;
5042;SDS011;2540;50.928;6.856;2023-08-08T09:32:06;6.00;;;3.37;;
5042;SDS011;2540;50.928;6.856;2023-08-08T09:34:32;3.87;;;2.60;;
5042;SDS011;2540;50.928;6.856;2023-08-08T09:36:58;9.00;;;3.20;;
5042;SDS011;2540;50.928;6.856;2023-08-08T09:39:23;5.07;;;3.10;;
5042;SDS011;2540;50.928;6.856;2023-08-08T09:41:49;7.70;;;3.20;;
5042;SDS011;2540;50.928;6.856;2023-08-08T09:44:14;3.70;;;2.13;;
5042;SDS011;2540;50.928;6.856;2023-08-08T09:46:40;5.73;;;1.90;;
5042;SDS011;2540;50.928;6.856;2023-08-08T09:49:05;5.47;;;1.87;;
5042;SDS011;2540;50.928;6.856;2023-08-08T09:51:31;6.40;;;2.20;;
5042;SDS011;2540;50.928;6.856;2023-08-08T09:53:58;3.30;;;2.43;;
5042;SDS011;2540;50.928;6.856;2023-08-08T09:56:24;11.70;;;2.60;;
5042;SDS011;2540;50.928;6.856;2023-08-08T09:58:50;7.13;;;2.37;;
5042;SDS011;2540;50.928;6.856;2023-08-08T10:01:16;5.60;;;2.23;;
5042;SDS011;2540;50.928;6.856;2023-08-08T10:03:41;5.27;;;2.30;;
5042;SDS011;2540;50.928;6.856;2023-08-08T10:06:10;7.20;;;3.33;;
5042;SDS011;2540;50.928;6.856;2023-08-08T10:08:35;4.03;;;1.83;;
5042;SDS011;2540;50.928;6.856;2023-08-08T10:11:00;6.10;;;2.00;;
5042;SDS011;2540;50.928;6.856;2023-08-08T10:13:26;3.90;;;1.97;;
5042;SDS011;2540;50.928;6.856;2023-08-08T10:15:52;6.20;;;2.47;;
5042;SDS011;2540;50.928;6.856;2023-08-08T10:18:18;3.23;;;1.97;;
5042;SDS011;2540;50.928;6.856;2023-08-08T10:20:46;3.50;;;2.53;;
5042;SDS011;2540;50.928;6.856;2023-08-08T10:23:14;6.70;;;2.40;;
5042;SDS011;2540;50.928;6.856;2023-08-08T10:25:44;5.93;;;2.10;;
5042;SDS011;2540;50.928;6.856;2023-08-08T10:28:13;10.00;;;2.93;;
5042;SDS011;2540;50.928;6.856;2023-08-08T10:30:46;6.80;;;2.47;;
5042;SDS011;2540;50.928;6.856;2023-08-08T10:33:16;5.73;;;2.13;;
5042;SDS011;2540;50.928;6.856;2023-08-08T10:35:49;2.17;;;1.80;;
5042;SDS011;2540;50.928;6.856;2023-08-08T10:38:21;2.97;;;1.90;;
5042;SDS011;2540;50.928;6.856;2023-08-08T10:40:47;3.50;;;1.90;;
5042;SDS011;2540;50.928;6.856;2023-08-08T10:43:12;6.17;;;1.93;;
5042;SDS011;2540;50.928;6.856;2023-08-08T10:45:40;7.20;;;2.17;;
5042;SDS011;2540;50.928;6.856;2023-08-08T10:48:08;4.67;;;2.10;;
5042;SDS011;2540;50.928;6.856;2023-08-08T10:50:37;6.67;;;2.23;;
5042;SDS011;2540;50.928;6.856;2023-08-08T10:53:03;5.60;;;2.20;;
5042;SDS011;2540;50.928;6.856;2023-08-08T10:55:35;6.93;;;1.90;;
5042;SDS011;2540;50.928;6.856;2023-08-08T10:58:08;6.00;;;2.10;;
5042;SDS011;2540;50.928;6.856;2023-08-08T11:00:40;5.37;;;2.07;;
5042;SDS011;2540;50.928;6.856;2023-08-08T11:03:05;6.90;;;1.90;;
5042;SDS011;2540;50.928;6.856;2023-08-08T11:05:31;2.00;;;1.80;;
5042;SDS011;2540;50.928;6.856;2023-08-08T11:08:02;3.27;;;2.10;;
5042;SDS011;2540;50.928;6.856;2023-08-08T11:10:29;5.60;;;2.07;;
5042;SDS011;2540;50.928;6.856;2023-08-08T11:12:57;4.03;;;1.70;;
5042;SDS011;2540;50.928;6.856;2023-08-08T11:15:24;2.90;;;1.50;;
5042;SDS011;2540;50.928;6.856;2023-08-08T11:17:50;2.43;;;1.50;;
5042;SDS011;2540;50.928;6.856;2023-08-08T11:20:17;5.57;;;1.70;;
5042;SDS011;2540;50.928;6.856;2023-08-08T11:22:42;3.50;;;1.60;;
5042;SDS011;2540;50.928;6.856;2023-08-08T11:25:08;3.60;;;1.50;;
5042;SDS011;2540;50.928;6.856;2023-08-08T11:27:33;7.93;;;1.70;;
5042;SDS011;2540;50.928;6.856;2023-08-08T11:29:59;4.73;;;1.77;;
5042;SDS011;2540;50.928;6.856;2023-08-08T11:32:25;1.67;;;1.50;;
5042;SDS011;2540;50.928;6.856;2023-08-08T11:34:51;8.53;;;1.50;;
5042;SDS011;2540;50.928;6.856;2023-08-08T11:37:16;3.60;;;1.43;;
5042;SDS011;2540;50.928;6.856;2023-08-08T11:39:42;4.30;;;1.73;;
5042;SDS011;2540;50.928;6.856;2023-08-08T11:42:08;8.00;;;1.33;;
5042;SDS011;2540;50.928;6.856;2023-08-08T11:44:33;2.23;;;2.03;;
5042;SDS011;2540;50.928;6.856;2023-08-08T11:47:01;2.20;;;1.57;;
5042;SDS011;2540;50.928;6.856;2023-08-08T11:49:27;4.77;;;1.60;;
5042;SDS011;2540;50.928;6.856;2023-08-08T11:51:53;5.90;;;1.60;;
5042;SDS011;2540;50.928;6.856;2023-08-08T11:54:20;4.33;;;1.40;;
5042;SDS011;2540;50.928;6.856;2023-08-08T11:56:46;6.20;;;1.80;;
5042;SDS011;2540;50.928;6.856;2023-08-08T11:59:11;3.00;;;1.50;;
5042;SDS011;2540;50.928;6.856;2023-08-08T12:01:37;6.40;;;1.97;;
5042;SDS011;2540;50.928;6.856;2023-08-08T12:04:07;5.00;;;1.90;;
5042;SDS011;2540;50.928;6.856;2023-08-08T12:06:34;4.80;;;1.50;;
5042;SDS011;2540;50.928;6.856;2023-08-08T12:09:02;3.53;;;1.63;;
5042;SDS011;2540;50.928;6.856;2023-08-08T12:11:28;1.90;;;1.27;;
5042;SDS011;2540;50.928;6.856;2023-08-08T12:13:57;4.60;;;1.60;;
5042;SDS011;2540;50.928;6.856;2023-08-08T12:16:27;4.50;;;3.53;;
5042;SDS011;2540;50.928;6.856;2023-08-08T12:18:55;7.13;;;1.77;;
5042;SDS011;2540;50.928;6.856;2023-08-08T12:21:21;3.00;;;1.33;;
5042;SDS011;2540;50.928;6.856;2023-08-08T12:23:46;5.93;;;1.60;;
5042;SDS011;2540;50.928;6.856;2023-08-08T12:26:11;5.10;;;1.70;;
5042;SDS011;2540;50.928;6.856;2023-08-08T12:28:37;2.90;;;1.30;;
5042;SDS011;2540;50.928;6.856;2023-08-08T12:31:03;8.20;;;1.80;;
5042;SDS011;2540;50.928;6.856;2023-08-08T12:33:28;2.90;;;1.43;;
5042;SDS011;2540;50.928;6.856;2023-08-08T12:35:53;2.93;;;1.60;;
5042;SDS011;2540;50.928;6.856;2023-08-08T12:38:19;3.50;;;1.30;;
5042;SDS011;2540;50.928;6.856;2023-08-08T12:40:45;3.00;;;1.67;;
5042;SDS011;2540;50.928;6.856;2023-08-08T12:43:11;3.83;;;1.70;;
5042;SDS011;2540;50.928;6.856;2023-08-08T12:45:39;3.17;;;1.57;;
5042;SDS011;2540;50.928;6.856;2023-08-08T12:48:05;5.47;;;1.53;;
5042;SDS011;2540;50.928;6.856;2023-08-08T12:50:31;4.30;;;1.37;;
5042;SDS011;2540;50.928;6.856;2023-08-08T12:52:56;1.97;;;1.53;;
5042;SDS011;2540;50.928;6.856;2023-08-08T12:55:21;2.37;;;1.60;;
5042;SDS011;2540;50.928;6.856;2023-08-08T12:57:47;1.10;;;1.00;;
5042;SDS011;2540;50.928;6.856;2023-08-08T13:00:13;9.37;;;2.50;;
5042;SDS011;2540;50.928;6.856;2023-08-08T13:02:38;7.17;;;1.40;;
5042;SDS011;2540;50.928;6.856;2023-08-08T13:05:04;3.10;;;1.30;;
5042;SDS011;2540;50.928;6.856;2023-08-08T13:07:32;2.60;;;1.33;;
5042;SDS011;2540;50.928;6.856;2023-08-08T13:09:57;3.97;;;1.60;;
5042;SDS011;2540;50.928;6.856;2023-08-08T13:12:22;6.17;;;1.70;;
5042;SDS011;2540;50.928;6.856;2023-08-08T13:14:48;4.13;;;1.40;;
5042;SDS011;2540;50.928;6.856;2023-08-08T13:17:13;7.60;;;1.20;;
5042;SDS011;2540;50.928;6.856;2023-08-08T13:19:39;4.87;;;1.33;;
5042;SDS011;2540;50.928;6.856;2023-08-08T13:22:05;3.10;;;1.50;;
5042;SDS011;2540;50.928;6.856;2023-08-08T13:24:30;3.50;;;1.30;;
5042;SDS011;2540;50.928;6.856;2023-08-08T13:26:55;2.43;;;1.53;;
5042;SDS011;2540;50.928;6.856;2023-08-08T13:29:21;4.53;;;1.50;;
5042;SDS011;2540;50.928;6.856;2023-08-08T13:31:46;3.03;;;1.30;;
5042;SDS011;2540;50.928;6.856;2023-08-08T13:34:12;8.67;;;1.60;;
5042;SDS011;2540;50.928;6.856;2023-08-08T13:36:37;3.73;;;1.40;;
5042;SDS011;2540;50.928;6.856;2023-08-08T13:39:02;4.63;;;1.47;;
5042;SDS011;2540;50.928;6.856;2023-08-08T13:41:29;2.90;;;1.43;;
5042;SDS011;2540;50.928;6.856;2023-08-08T13:43:54;3.93;;;1.50;;
5042;SDS011;2540;50.928;6.856;2023-08-08T13:46:19;4.60;;;1.60;;
5042;SDS011;2540;50.928;6.856;2023-08-08T13:48:45;3.07;;;1.37;;
5042;SDS011;2540;50.928;6.856;2023-08-08T13:51:10;3.47;;;2.23;;
5042;SDS011;2540;50.928;6.856;2023-08-08T13:53:36;2.60;;;1.30;;
5042;SDS011;2540;50.928;6.856;2023-08-08T13:56:01;3.60;;;1.30;;
5042;SDS011;2540;50.928;6.856;2023-08-08T13:58:26;2.77;;;1.70;;
5042;SDS011;2540;50.928;6.856;2023-08-08T14:00:52;10.37;;;2.10;;
5042;SDS011;2540;50.928;6.856;2023-08-08T14:03:19;4.73;;;2.20;;
5042;SDS011;2540;50.928;6.856;2023-08-08T14:05:45;5.10;;;1.70;;
5042;SDS011;2540;50.928;6.856;2023-08-08T14:08:10;3.53;;;1.60;;
5042;SDS011;2540;50.928;6.856;2023-08-08T14:10:36;4.87;;;1.80;;
5042;SDS011;2540;50.928;6.856;2023-08-08T14:13:01;6.73;;;1.53;;
5042;SDS011;2540;50.928;6.856;2023-08-08T14:15:27;4.87;;;1.53;;
5042;SDS011;2540;50.928;6.856;2023-08-08T14:17:53;3.27;;;1.23;;
5042;SDS011;2540;50.928;6.856;2023-08-08T14:20:18;4.50;;;1.50;;
5042;SDS011;2540;50.928;6.856;2023-08-08T14:22:44;5.63;;;1.50;;
5042;SDS011;2540;50.928;6.856;2023-08-08T14:25:11;4.87;;;1.80;;
5042;SDS011;2540;50.928;6.856;2023-08-08T14:27:37;3.70;;;1.53;;
5042;SDS011;2540;50.928;6.856;2023-08-08T14:30:02;2.30;;;1.50;;
5042;SDS011;2540;50.928;6.856;2023-08-08T14:32:29;3.00;;;1.60;;
5042;SDS011;2540;50.928;6.856;2023-08-08T14:34:54;2.90;;;1.70;;
5042;SDS011;2540;50.928;6.856;2023-08-08T14:37:19;2.80;;;1.43;;
5042;SDS011;2540;50.928;6.856;2023-08-08T14:39:45;4.40;;;1.30;;
5042;SDS011;2540;50.928;6.856;2023-08-08T14:42:10;4.67;;;1.43;;
5042;SDS011;2540;50.928;6.856;2023-08-08T14:44:35;1.70;;;1.13;;
5042;SDS011;2540;50.928;6.856;2023-08-08T14:47:01;6.33;;;1.57;;
5042;SDS011;2540;50.928;6.856;2023-08-08T14:49:27;6.30;;;1.20;;
5042;SDS011;2540;50.928;6.856;2023-08-08T14:51:52;4.03;;;1.63;;
5042;SDS011;2540;50.928;6.856;2023-08-08T14:54:18;2.53;;;1.30;;
5042;SDS011;2540;50.928;6.856;2023-08-08T14:56:43;4.37;;;1.70;;
5042;SDS011;2540;50.928;6.856;2023-08-08T14:59:08;4.03;;;1.47;;
5042;SDS011;2540;50.928;6.856;2023-08-08T15:01:34;2.60;;;1.60;;
5042;SDS011;2540;50.928;6.856;2023-08-08T15:03:59;2.37;;;1.50;;
5042;SDS011;2540;50.928;6.856;2023-08-08T15:06:25;12.63;;;2.27;;
5042;SDS011;2540;50.928;6.856;2023-08-08T15:08:50;5.93;;;1.57;;